Time;durP1;ratioP1;P1;durP2;ratioP2;P2;SDS_P1;SDS_P2;PMS_P1;PMS_P2;Temp;Humidity;BMP_temperature;BMP_pressure;BME280_temperature;BME280_humidity;BME280_pressure;Samples;Min_cycle;Max_cycle;Signal;HPM_P1;HPM_P2
2023/12/31 00:00:15;;;;;;;8.52;6.03;;;;;;;;;;5046255;28;20404;-71
2023/12/31 00:02:40;;;;;;;8.00;6.07;;;;;;;;;;5062514;28;20059;-71
2023/12/31 00:05:06;;;;;;;7.97;5.50;;;;;;;;;;5046419;28;20021;-71
2023/12/31 00:07:31;;;;;;;8.00;6.00;;;;;;;;;;5051785;28;20411;-71
2023/12/31 00:09:56;;;;;;;8.68;6.30;;;;;;;;;;5055352;28;20028;-71
2023/12/31 00:12:22;;;;;;;7.30;5.50;;;;;;;;;;5056329;28;20296;-71
2023/12/31 00:14:47;;;;;;;8.48;6.32;;;;;;;;;;5047831;28;20028;-71
2023/12/31 00:17:12;;;;;;;7.03;5.95;;;;;;;;;;5057272;28;20300;-71
2023/12/31 00:19:38;;;;;;;8.10;5.70;;;;;;;;;;5048710;28;20060;-71
2023/12/31 00:22:03;;;;;;;7.60;5.97;;;;;;;;;;5055887;28;20321;-71
2023/12/31 00:24:28;;;;;;;9.00;6.25;;;;;;;;;;5049888;28;20009;-71
2023/12/31 00:26:54;;;;;;;7.50;5.60;;;;;;;;;;5048947;28;20013;-71
2023/12/31 00:29:20;;;;;;;7.75;6.03;;;;;;;;;;5049487;28;20094;-71
2023/12/31 00:31:45;;;;;;;7.75;6.10;;;;;;;;;;5051969;28;20025;-71
2023/12/31 00:34:11;;;;;;;7.80;5.88;;;;;;;;;;5050079;28;20049;-71
2023/12/31 00:36:36;;;;;;;7.88;5.70;;;;;;;;;;5031305;28;20028;-71
2023/12/31 00:39:02;;;;;;;8.40;5.82;;;;;;;;;;5053350;28;20698;-71
2023/12/31 00:41:28;;;;;;;8.98;6.10;;;;;;;;;;5036533;28;20029;-71
2023/12/31 00:43:53;;;;;;;8.93;6.47;;;;;;;;;;5057893;28;20025;-71
2023/12/31 00:46:18;;;;;;;8.68;6.13;;;;;;;;;;5053845;28;20021;-72
2023/12/31 00:48:44;;;;;;;7.45;6.18;;;;;;;;;;5055602;28;20032;-71
2023/12/31 00:51:09;;;;;;;8.70;5.95;;;;;;;;;;5054372;28;20452;-70
2023/12/31 00:53:35;;;;;;;8.55;6.32;;;;;;;;;;5041553;28;20036;-71
2023/12/31 00:56:00;;;;;;;7.72;6.18;;;;;;;;;;5051538;28;20411;-71
2023/12/31 00:58:26;;;;;;;8.10;6.00;;;;;;;;;;5038366;28;20021;-70
2023/12/31 01:00:51;;;;;;;8.10;6.15;;;;;;;;;;5043133;28;20025;-70
2023/12/31 01:03:16;;;;;;;6.88;5.80;;;;;;;;;;5053766;28;20025;-71
2023/12/31 01:05:42;;;;;;;7.88;5.97;;;;;;;;;;5038089;28;20068;-71
2023/12/31 01:08:07;;;;;;;8.50;6.03;;;;;;;;;;5039413;28;20112;-73
2023/12/31 01:10:33;;;;;;;8.20;6.00;;;;;;;;;;5039430;28;20031;-70
2023/12/31 01:12:58;;;;;;;7.30;5.30;;;;;;;;;;5046745;28;20020;-70
2023/12/31 01:15:23;;;;;;;8.38;6.20;;;;;;;;;;5042944;28;20131;-71
2023/12/31 01:17:49;;;;;;;7.70;5.97;;;;;;;;;;5051859;28;25494;-70
2023/12/31 01:20:14;;;;;;;7.78;6.20;;;;;;;;;;5049683;28;20044;-71
2023/12/31 01:22:39;;;;;;;7.75;6.07;;;;;;;;;;5048068;28;20079;-70
2023/12/31 01:25:05;;;;;;;8.13;5.80;;;;;;;;;;5056231;28;20553;-70
2023/12/31 01:27:30;;;;;;;8.63;6.57;;;;;;;;;;5048139;28;20610;-70
2023/12/31 01:29:56;;;;;;;9.25;6.80;;;;;;;;;;5053310;28;20419;-70
2023/12/31 01:32:21;;;;;;;7.93;6.25;;;;;;;;;;5070644;28;20046;-73
2023/12/31 01:34:46;;;;;;;8.18;6.20;;;;;;;;;;5064248;28;20036;-73
2023/12/31 01:37:12;;;;;;;8.07;6.00;;;;;;;;;;5059084;28;20086;-73
2023/12/31 01:39:37;;;;;;;7.97;6.07;;;;;;;;;;5035932;28;20439;-71
2023/12/31 01:42:02;;;;;;;8.60;6.13;;;;;;;;;;5054777;28;20052;-71
2023/12/31 01:44:28;;;;;;;7.60;5.80;;;;;;;;;;5053172;28;20071;-71
2023/12/31 01:46:53;;;;;;;8.20;6.20;;;;;;;;;;5059529;28;20396;-71
2023/12/31 01:49:19;;;;;;;8.70;6.28;;;;;;;;;;5044987;28;21351;-71
2023/12/31 01:51:44;;;;;;;7.47;5.72;;;;;;;;;;5051656;28;20037;-71
2023/12/31 01:54:09;;;;;;;7.90;5.82;;;;;;;;;;5056003;28;20079;-71
2023/12/31 01:56:36;;;;;;;8.40;6.18;;;;;;;;;;5049648;28;20463;-71
2023/12/31 01:59:01;;;;;;;8.93;6.47;;;;;;;;;;5045506;28;20041;-71
2023/12/31 02:01:27;;;;;;;8.05;5.80;;;;;;;;;;5046935;28;20030;-71
2023/12/31 02:03:52;;;;;;;8.10;6.10;;;;;;;;;;5050756;28;20090;-71
2023/12/31 02:06:17;;;;;;;8.27;6.35;;;;;;;;;;5049222;28;20334;-71
2023/12/31 02:08:43;;;;;;;7.95;6.25;;;;;;;;;;5048249;28;20035;-71
2023/12/31 02:11:08;;;;;;;7.10;6.00;;;;;;;;;;5043466;28;20038;-71
2023/12/31 02:13:33;;;;;;;8.00;5.70;;;;;;;;;;5062164;28;20749;-71
2023/12/31 02:15:58;;;;;;;7.38;5.93;;;;;;;;;;5047987;28;20065;-71
2023/12/31 02:18:27;;;;;;;8.65;6.03;;;;;;;;;;5050016;28;20055;-71
2023/12/31 02:20:52;;;;;;;8.50;6.20;;;;;;;;;;5056131;28;20094;-71
2023/12/31 02:23:17;;;;;;;7.82;6.05;;;;;;;;;;5058505;28;20032;-71
2023/12/31 02:25:43;;;;;;;7.88;5.88;;;;;;;;;;5048529;28;20057;-71
2023/12/31 02:28:11;;;;;;;8.20;6.00;;;;;;;;;;5052844;28;20158;-71
2023/12/31 02:30:36;;;;;;;7.65;5.95;;;;;;;;;;5049003;28;20037;-71
2023/12/31 02:33:01;;;;;;;7.80;6.28;;;;;;;;;;5046949;28;20534;-72
2023/12/31 02:35:27;;;;;;;7.97;5.78;;;;;;;;;;5048684;28;20073;-71
2023/12/31 02:37:52;;;;;;;8.13;6.10;;;;;;;;;;5050587;28;20044;-72
2023/12/31 02:40:18;;;;;;;8.18;6.30;;;;;;;;;;5038012;28;20048;-72
2023/12/31 02:42:44;;;;;;;8.77;6.13;;;;;;;;;;5049988;28;20060;-72
2023/12/31 02:45:09;;;;;;;7.55;6.07;;;;;;;;;;5047750;28;20452;-71
2023/12/31 02:47:34;;;;;;;7.05;5.60;;;;;;;;;;5047114;28;20044;-72
2023/12/31 02:50:00;;;;;;;6.85;5.32;;;;;;;;;;5044012;28;20029;-71
2023/12/31 02:52:25;;;;;;;7.47;6.00;;;;;;;;;;5046894;28;20033;-72
2023/12/31 02:54:50;;;;;;;8.40;6.15;;;;;;;;;;5051678;28;20063;-72
2023/12/31 02:57:17;;;;;;;8.07;5.95;;;;;;;;;;5045549;28;20046;-72
2023/12/31 02:59:43;;;;;;;7.38;5.95;;;;;;;;;;5042567;28;20022;-71
2023/12/31 03:02:08;;;;;;;7.50;5.78;;;;;;;;;;5052957;28;20040;-71
2023/12/31 03:04:33;;;;;;;7.85;6.10;;;;;;;;;;5051099;28;20025;-72
2023/12/31 03:06:59;;;;;;;7.30;5.97;;;;;;;;;;5050290;28;20456;-71
2023/12/31 03:09:24;;;;;;;7.07;6.03;;;;;;;;;;5030108;28;20432;-72
2023/12/31 03:11:51;;;;;;;7.88;6.28;;;;;;;;;;5053018;28;20405;-72
2023/12/31 03:14:17;;;;;;;7.45;5.97;;;;;;;;;;5051393;28;20037;-71
2023/12/31 03:16:43;;;;;;;7.88;5.95;;;;;;;;;;5044173;28;20039;-72
2023/12/31 03:19:08;;;;;;;7.93;5.63;;;;;;;;;;5051365;28;20071;-71
2023/12/31 03:21:33;;;;;;;8.05;6.05;;;;;;;;;;5051449;28;20033;-72
2023/12/31 03:23:59;;;;;;;7.47;5.90;;;;;;;;;;5032762;28;20510;-72
2023/12/31 03:26:24;;;;;;;8.93;6.63;;;;;;;;;;5049013;28;20048;-71
2023/12/31 03:28:49;;;;;;;7.93;5.95;;;;;;;;;;5048931;28;20033;-71
2023/12/31 03:31:15;;;;;;;7.50;5.80;;;;;;;;;;5051101;28;20048;-71
2023/12/31 03:33:40;;;;;;;8.27;5.80;;;;;;;;;;5056743;28;20053;-72
2023/12/31 03:36:06;;;;;;;6.63;5.55;;;;;;;;;;5046346;28;20561;-72
2023/12/31 03:38:31;;;;;;;7.68;5.85;;;;;;;;;;5075261;28;20044;-72
2023/12/31 03:40:56;;;;;;;7.75;5.68;;;;;;;;;;5054666;28;20098;-71
2023/12/31 03:43:22;;;;;;;7.38;5.85;;;;;;;;;;5060244;28;20036;-72
2023/12/31 03:45:47;;;;;;;8.23;5.85;;;;;;;;;;5045255;28;20038;-72
2023/12/31 03:48:12;;;;;;;7.00;5.38;;;;;;;;;;5075969;28;20066;-71
2023/12/31 03:50:38;;;;;;;6.93;5.28;;;;;;;;;;5052386;28;20048;-71
2023/12/31 03:53:03;;;;;;;8.68;6.20;;;;;;;;;;5041833;28;20064;-72
2023/12/31 03:55:28;;;;;;;6.88;5.40;;;;;;;;;;5055243;28;20037;-71
2023/12/31 03:57:54;;;;;;;8.13;6.25;;;;;;;;;;5046725;28;20029;-72
2023/12/31 04:00:19;;;;;;;7.88;5.93;;;;;;;;;;5048763;28;20044;-71
2023/12/31 04:02:44;;;;;;;7.25;5.55;;;;;;;;;;5050126;28;20064;-71
2023/12/31 04:05:11;;;;;;;6.22;5.53;;;;;;;;;;5065799;28;20172;-71
2023/12/31 04:07:38;;;;;;;6.75;5.60;;;;;;;;;;5047384;28;20052;-71
2023/12/31 04:10:03;;;;;;;6.97;5.50;;;;;;;;;;5047293;28;20030;-71
2023/12/31 04:12:28;;;;;;;6.50;5.40;;;;;;;;;;5039313;28;20393;-71
2023/12/31 04:14:54;;;;;;;7.20;5.50;;;;;;;;;;5054177;28;20051;-71
2023/12/31 04:17:19;;;;;;;8.02;6.22;;;;;;;;;;5049719;28;20040;-72
2023/12/31 04:19:44;;;;;;;7.88;5.55;;;;;;;;;;5044718;28;20037;-72
2023/12/31 04:22:09;;;;;;;6.30;4.90;;;;;;;;;;5052787;28;20043;-72
2023/12/31 04:24:35;;;;;;;6.95;5.75;;;;;;;;;;5055223;28;20090;-72
2023/12/31 04:27:00;;;;;;;7.40;5.93;;;;;;;;;;5041747;28;20075;-71
2023/12/31 04:29:25;;;;;;;7.35;5.65;;;;;;;;;;5051903;28;20056;-72
2023/12/31 04:31:51;;;;;;;7.72;6.00;;;;;;;;;;5051317;28;20033;-72
2023/12/31 04:34:16;;;;;;;7.28;5.93;;;;;;;;;;5057420;28;20771;-71
2023/12/31 04:36:44;;;;;;;7.32;5.57;;;;;;;;;;5045364;28;20029;-71
2023/12/31 04:39:10;;;;;;;6.90;5.45;;;;;;;;;;5058069;28;20057;-72
2023/12/31 04:41:35;;;;;;;5.70;5.05;;;;;;;;;;5040717;28;20034;-71
2023/12/31 04:44:01;;;;;;;6.57;5.22;;;;;;;;;;5052490;28;20043;-72
2023/12/31 04:46:26;;;;;;;7.80;5.50;;;;;;;;;;5045994;28;20041;-72
2023/12/31 04:48:51;;;;;;;7.32;5.53;;;;;;;;;;5044780;28;20037;-70
2023/12/31 04:51:24;;;;;;;7.43;5.70;;;;;;;;;;5062184;28;20178;-70
2023/12/31 04:53:49;;;;;;;6.82;5.30;;;;;;;;;;5054176;28;20044;-70
2023/12/31 04:56:18;;;;;;;6.43;5.45;;;;;;;;;;5048722;28;20037;-71
2023/12/31 04:58:44;;;;;;;7.10;5.35;;;;;;;;;;5046041;28;20029;-71
2023/12/31 05:01:10;;;;;;;7.10;5.40;;;;;;;;;;5041725;28;20179;-71
2023/12/31 05:03:35;;;;;;;6.53;5.07;;;;;;;;;;5043094;28;20770;-71
2023/12/31 05:06:00;;;;;;;6.68;5.15;;;;;;;;;;5048228;28;20041;-71
2023/12/31 05:08:25;;;;;;;7.53;5.75;;;;;;;;;;5056856;28;20036;-71
2023/12/31 05:10:51;;;;;;;6.65;5.20;;;;;;;;;;5052112;28;20041;-71
2023/12/31 05:13:16;;;;;;;6.78;5.35;;;;;;;;;;5051470;28;20053;-71
2023/12/31 05:15:43;;;;;;;7.03;5.25;;;;;;;;;;5052596;28;20130;-71
2023/12/31 05:18:08;;;;;;;7.50;5.50;;;;;;;;;;5055753;28;20037;-71
2023/12/31 05:20:33;;;;;;;7.28;5.47;;;;;;;;;;5047381;28;20043;-71
2023/12/31 05:22:58;;;;;;;6.60;5.38;;;;;;;;;;5047350;28;20122;-71
2023/12/31 05:25:24;;;;;;;7.25;5.55;;;;;;;;;;5055130;28;20037;-71
2023/12/31 05:27:49;;;;;;;6.43;5.28;;;;;;;;;;5047262;28;20043;-71
2023/12/31 05:30:14;;;;;;;7.60;5.43;;;;;;;;;;5047367;28;20040;-71
2023/12/31 05:32:40;;;;;;;7.22;5.40;;;;;;;;;;5036285;28;20033;-71
2023/12/31 05:35:05;;;;;;;8.20;5.40;;;;;;;;;;5034464;28;20086;-71
2023/12/31 05:37:31;;;;;;;6.72;5.07;;;;;;;;;;5035656;28;20037;-71
2023/12/31 05:39:56;;;;;;;6.13;4.90;;;;;;;;;;5039154;28;20033;-70
2023/12/31 05:42:21;;;;;;;6.75;5.05;;;;;;;;;;5049868;28;20041;-70
2023/12/31 05:44:47;;;;;;;7.85;5.07;;;;;;;;;;5038379;28;20062;-70
2023/12/31 05:47:12;;;;;;;6.18;5.07;;;;;;;;;;5037936;28;20069;-70
2023/12/31 05:49:38;;;;;;;7.05;5.50;;;;;;;;;;5037317;28;20041;-70
2023/12/31 05:52:03;;;;;;;5.32;4.60;;;;;;;;;;5037318;28;20102;-71
2023/12/31 05:54:29;;;;;;;6.30;4.82;;;;;;;;;;5040162;28;20614;-70
2023/12/31 05:56:54;;;;;;;6.25;5.13;;;;;;;;;;5039354;28;20234;-70
2023/12/31 05:59:19;;;;;;;7.00;5.25;;;;;;;;;;5053844;28;20860;-71
2023/12/31 06:01:45;;;;;;;6.70;5.03;;;;;;;;;;5036642;28;20079;-70
2023/12/31 06:04:11;;;;;;;6.47;5.22;;;;;;;;;;5035038;28;20071;-72
2023/12/31 06:06:36;;;;;;;5.93;4.85;;;;;;;;;;5041084;28;20521;-73
2023/12/31 06:09:01;;;;;;;7.13;5.20;;;;;;;;;;5035789;28;20607;-74
2023/12/31 06:11:27;;;;;;;6.50;5.00;;;;;;;;;;5039680;28;20496;-73
2023/12/31 06:13:52;;;;;;;6.30;4.97;;;;;;;;;;5053097;28;20041;-73
2023/12/31 06:16:18;;;;;;;6.38;5.05;;;;;;;;;;5044348;28;21133;-72
2023/12/31 06:18:43;;;;;;;5.97;4.90;;;;;;;;;;5049158;28;20473;-74
2023/12/31 06:21:08;;;;;;;6.05;5.13;;;;;;;;;;5040882;28;20045;-73
2023/12/31 06:23:34;;;;;;;5.65;4.60;;;;;;;;;;5042751;28;20045;-74
2023/12/31 06:25:59;;;;;;;6.38;4.90;;;;;;;;;;5040497;28;20148;-74
2023/12/31 06:28:24;;;;;;;6.07;4.78;;;;;;;;;;5038656;28;20040;-74
2023/12/31 06:30:50;;;;;;;5.70;4.63;;;;;;;;;;5039497;28;20033;-72
2023/12/31 06:33:15;;;;;;;6.43;4.68;;;;;;;;;;5035890;28;20128;-72
2023/12/31 06:35:40;;;;;;;5.68;4.60;;;;;;;;;;5034353;28;20061;-75
2023/12/31 06:38:06;;;;;;;7.07;5.10;;;;;;;;;;5037307;28;20040;-74
2023/12/31 06:40:31;;;;;;;6.65;5.30;;;;;;;;;;5051143;28;20069;-74
2023/12/31 06:42:57;;;;;;;12.65;5.72;;;;;;;;;;5041738;28;20132;-72
2023/12/31 06:45:22;;;;;;;7.25;5.10;;;;;;;;;;5038556;28;20033;-73
2023/12/31 06:47:47;;;;;;;5.88;4.70;;;;;;;;;;5040756;28;20061;-73
2023/12/31 06:50:13;;;;;;;6.70;4.55;;;;;;;;;;5038276;28;20083;-73
2023/12/31 06:52:38;;;;;;;6.50;4.65;;;;;;;;;;5042783;28;20044;-73
2023/12/31 06:55:03;;;;;;;10.32;5.30;;;;;;;;;;5044715;28;20044;-74
2023/12/31 06:57:29;;;;;;;6.15;4.72;;;;;;;;;;5042188;28;20083;-73
2023/12/31 06:59:54;;;;;;;6.43;5.13;;;;;;;;;;5040696;28;20040;-72
2023/12/31 07:02:20;;;;;;;6.60;4.78;;;;;;;;;;5045368;28;20041;-71
2023/12/31 07:04:45;;;;;;;6.15;4.85;;;;;;;;;;5044560;28;20049;-73
2023/12/31 07:07:11;;;;;;;6.45;4.97;;;;;;;;;;5046601;28;20129;-74
2023/12/31 07:09:36;;;;;;;7.00;5.35;;;;;;;;;;5058161;28;20460;-73
2023/12/31 07:12:02;;;;;;;6.13;4.70;;;;;;;;;;5047130;28;20041;-74
2023/12/31 07:14:27;;;;;;;5.60;4.60;;;;;;;;;;5045514;28;20604;-73
2023/12/31 07:16:52;;;;;;;6.30;5.03;;;;;;;;;;5048442;28;20070;-73
2023/12/31 07:19:17;;;;;;;6.05;4.80;;;;;;;;;;5047939;28;20106;-73
2023/12/31 07:21:44;;;;;;;6.57;5.20;;;;;;;;;;5043126;28;20036;-74
2023/12/31 07:24:09;;;;;;;6.60;5.22;;;;;;;;;;5050265;28;20037;-73
2023/12/31 07:26:35;;;;;;;6.18;5.00;;;;;;;;;;5054014;28;20037;-73
2023/12/31 07:29:00;;;;;;;7.45;5.03;;;;;;;;;;5047657;28;20112;-74
2023/12/31 07:31:26;;;;;;;6.00;4.55;;;;;;;;;;5052289;28;20146;-74
2023/12/31 07:33:52;;;;;;;6.85;5.18;;;;;;;;;;5050565;28;20053;-73
2023/12/31 07:36:17;;;;;;;7.43;5.00;;;;;;;;;;5040551;28;20542;-74
2023/12/31 07:38:45;;;;;;;6.30;4.97;;;;;;;;;;5047256;28;20037;-73
2023/12/31 07:41:12;;;;;;;6.70;4.90;;;;;;;;;;5042248;28;20166;-72
2023/12/31 07:43:38;;;;;;;6.75;5.25;;;;;;;;;;5058176;28;20115;-72
2023/12/31 07:46:03;;;;;;;6.72;5.13;;;;;;;;;;5044294;28;20052;-71
2023/12/31 07:48:29;;;;;;;7.28;5.18;;;;;;;;;;5049017;28;20025;-71
2023/12/31 07:50:54;;;;;;;6.53;4.82;;;;;;;;;;5049697;28;20033;-71
2023/12/31 07:53:19;;;;;;;7.38;5.63;;;;;;;;;;5052611;28;20043;-72
2023/12/31 07:55:45;;;;;;;8.00;5.40;;;;;;;;;;5045490;28;20044;-72
2023/12/31 07:58:11;;;;;;;7.38;5.10;;;;;;;;;;5049960;28;20029;-73
2023/12/31 08:00:37;;;;;;;7.95;5.35;;;;;;;;;;5050404;28;20037;-73
2023/12/31 08:03:02;;;;;;;6.88;5.22;;;;;;;;;;5053183;28;20400;-73
2023/12/31 08:05:32;;;;;;;7.03;4.95;;;;;;;;;;5058088;28;20062;-74
2023/12/31 08:07:57;;;;;;;7.18;5.20;;;;;;;;;;5044971;28;20034;-74
2023/12/31 08:10:22;;;;;;;6.93;5.30;;;;;;;;;;5054736;28;20436;-74
2023/12/31 08:12:48;;;;;;;7.72;5.60;;;;;;;;;;5044105;28;20040;-73
2023/12/31 08:15:13;;;;;;;7.20;5.30;;;;;;;;;;5057476;28;20179;-74
2023/12/31 08:17:39;;;;;;;6.57;5.10;;;;;;;;;;5045777;28;20503;-74
2023/12/31 08:20:05;;;;;;;8.52;6.00;;;;;;;;;;5046665;28;20131;-75
2023/12/31 08:22:30;;;;;;;8.18;5.53;;;;;;;;;;5042957;28;20029;-76
2023/12/31 08:24:56;;;;;;;13.52;10.35;;;;;;;;;;5047380;28;20032;-72
2023/12/31 08:27:21;;;;;;;8.73;6.65;;;;;;;;;;5040076;28;20548;-75
2023/12/31 08:29:48;;;;;;;7.88;5.63;;;;;;;;;;5047869;28;20040;-73
2023/12/31 08:32:18;;;;;;;8.38;5.65;;;;;;;;;;5046799;28;20061;-73
2023/12/31 08:34:44;;;;;;;8.23;5.63;;;;;;;;;;5052393;28;20128;-73
2023/12/31 08:37:10;;;;;;;6.95;5.72;;;;;;;;;;5053202;28;20104;-72
2023/12/31 08:39:40;;;;;;;7.47;5.85;;;;;;;;;;5062830;28;20096;-73
2023/12/31 08:42:06;;;;;;;7.35;5.28;;;;;;;;;;5049736;28;21059;-74
2023/12/31 08:44:31;;;;;;;6.97;5.93;;;;;;;;;;5028931;28;20073;-73
2023/12/31 08:46:56;;;;;;;7.13;5.78;;;;;;;;;;5044092;28;20039;-74
2023/12/31 08:49:24;;;;;;;7.60;5.97;;;;;;;;;;5044996;28;20029;-74
2023/12/31 08:51:50;;;;;;;6.90;5.65;;;;;;;;;;5060059;28;20088;-72
2023/12/31 08:54:15;;;;;;;8.90;6.15;;;;;;;;;;5046412;28;20514;-73
2023/12/31 08:56:41;;;;;;;8.27;5.72;;;;;;;;;;5044487;28;20020;-73
2023/12/31 08:59:06;;;;;;;8.75;6.28;;;;;;;;;;5062122;28;20119;-72
2023/12/31 09:01:31;;;;;;;8.73;6.80;;;;;;;;;;5053329;28;20021;-77
2023/12/31 09:03:58;;;;;;;8.45;5.75;;;;;;;;;;5050083;28;20017;-74
2023/12/31 09:06:23;;;;;;;7.93;5.80;;;;;;;;;;5053833;28;20072;-73
2023/12/31 09:08:49;;;;;;;9.40;5.88;;;;;;;;;;5042684;28;20028;-72
2023/12/31 09:11:15;;;;;;;8.35;5.90;;;;;;;;;;5026380;28;20033;-72
2023/12/31 09:13:41;;;;;;;8.18;6.07;;;;;;;;;;5044333;28;20037;-72
2023/12/31 09:16:07;;;;;;;9.93;5.90;;;;;;;;;;5042263;28;20052;-73
2023/12/31 09:18:32;;;;;;;9.23;5.80;;;;;;;;;;5044721;28;20020;-73
2023/12/31 09:20:57;;;;;;;8.20;6.15;;;;;;;;;;5046557;28;20480;-73
2023/12/31 09:23:23;;;;;;;8.23;6.10;;;;;;;;;;5043493;28;20414;-74
2023/12/31 09:25:48;;;;;;;7.30;5.43;;;;;;;;;;5055182;28;20025;-73
2023/12/31 09:28:14;;;;;;;7.07;5.57;;;;;;;;;;5043211;28;20035;-72
2023/12/31 09:30:39;;;;;;;9.35;6.15;;;;;;;;;;5044760;28;20052;-74
2023/12/31 09:33:04;;;;;;;8.77;6.32;;;;;;;;;;5047650;28;20037;-73
2023/12/31 09:35:30;;;;;;;8.20;5.85;;;;;;;;;;5040408;28;20033;-74
2023/12/31 09:37:55;;;;;;;7.75;5.63;;;;;;;;;;5043092;28;20033;-75
2023/12/31 09:40:20;;;;;;;8.18;6.07;;;;;;;;;;5037842;28;20024;-73
2023/12/31 09:42:48;;;;;;;8.80;6.35;;;;;;;;;;5039251;28;20606;-75
2023/12/31 09:45:14;;;;;;;7.00;5.82;;;;;;;;;;5043371;28;20456;-74
2023/12/31 09:47:39;;;;;;;9.85;6.70;;;;;;;;;;5041316;28;20462;-74
2023/12/31 09:50:07;;;;;;;9.63;6.35;;;;;;;;;;5053973;28;20025;-74
2023/12/31 09:52:32;;;;;;;8.35;6.00;;;;;;;;;;5020436;28;20017;-74
2023/12/31 09:54:58;;;;;;;7.43;5.97;;;;;;;;;;5040995;28;20025;-73
2023/12/31 09:57:23;;;;;;;7.50;5.53;;;;;;;;;;5059327;28;20029;-74
2023/12/31 09:59:50;;;;;;;8.10;6.28;;;;;;;;;;5039550;28;20600;-73
2023/12/31 10:02:18;;;;;;;7.68;5.90;;;;;;;;;;5045400;28;20041;-73
2023/12/31 10:04:46;;;;;;;9.20;6.40;;;;;;;;;;5055906;28;20057;-73
2023/12/31 10:07:12;;;;;;;8.20;6.13;;;;;;;;;;5045288;28;20147;-73
2023/12/31 10:09:37;;;;;;;7.97;5.50;;;;;;;;;;5041698;28;20100;-73
2023/12/31 10:12:03;;;;;;;7.85;5.90;;;;;;;;;;5036970;28;20127;-74
2023/12/31 10:14:28;;;;;;;7.55;6.10;;;;;;;;;;5053462;28;20107;-73
2023/12/31 10:16:53;;;;;;;9.85;6.32;;;;;;;;;;5039564;28;20041;-73
2023/12/31 10:19:19;;;;;;;7.22;5.90;;;;;;;;;;5053852;28;20464;-73
2023/12/31 10:21:44;;;;;;;6.95;5.55;;;;;;;;;;5046019;28;20045;-74
2023/12/31 10:24:10;;;;;;;8.20;6.43;;;;;;;;;;5039553;28;20064;-73
2023/12/31 10:26:36;;;;;;;8.52;5.72;;;;;;;;;;5057087;28;20040;-73
2023/12/31 10:29:04;;;;;;;7.90;5.78;;;;;;;;;;5043441;28;20030;-74
2023/12/31 10:31:29;;;;;;;8.52;5.97;;;;;;;;;;5039354;28;20097;-72
2023/12/31 10:33:55;;;;;;;9.40;6.75;;;;;;;;;;5039354;28;20093;-72
2023/12/31 10:36:22;;;;;;;10.27;6.18;;;;;;;;;;5052187;28;20378;-72
2023/12/31 10:38:48;;;;;;;8.93;6.20;;;;;;;;;;5042019;28;20032;-73
2023/12/31 10:41:20;;;;;;;7.05;5.53;;;;;;;;;;5036877;28;20044;-73
2023/12/31 10:43:46;;;;;;;9.13;6.28;;;;;;;;;;5020414;28;20048;-74
2023/12/31 10:46:13;;;;;;;7.55;5.93;;;;;;;;;;5037460;28;20097;-74
2023/12/31 10:48:38;;;;;;;8.75;6.30;;;;;;;;;;5042139;28;20473;-73
2023/12/31 10:51:05;;;;;;;8.20;6.13;;;;;;;;;;5027984;28;20111;-73
2023/12/31 10:53:30;;;;;;;8.90;6.00;;;;;;;;;;5040314;28;20045;-72
2023/12/31 10:55:55;;;;;;;7.82;6.05;;;;;;;;;;5057394;28;20033;-71
2023/12/31 10:58:21;;;;;;;8.23;6.35;;;;;;;;;;5042219;28;20029;-73
2023/12/31 11:00:46;;;;;;;8.45;5.63;;;;;;;;;;5046458;28;20120;-73
2023/12/31 11:03:13;;;;;;;19.35;6.68;;;;;;;;;;5042380;28;20124;-73
2023/12/31 11:05:38;;;;;;;11.32;6.10;;;;;;;;;;5061206;28;20056;-73
2023/12/31 11:08:04;;;;;;;10.45;5.57;;;;;;;;;;5047554;28;20504;-73
2023/12/31 11:10:29;;;;;;;9.15;5.45;;;;;;;;;;5037666;28;20095;-73
2023/12/31 11:12:55;;;;;;;9.88;6.45;;;;;;;;;;5040043;28;20041;-71
2023/12/31 11:15:20;;;;;;;9.52;6.10;;;;;;;;;;5057191;28;20094;-73
2023/12/31 11:18:08;;;;;;;8.10;5.65;;;;;;;;;;5057421;28;20041;-73
2023/12/31 11:20:55;;;;;;;8.98;5.97;;;;;;;;;;5068030;28;21755;-73
2023/12/31 11:23:23;;;;;;;9.73;6.13;;;;;;;;;;5039386;28;20025;-74
2023/12/31 11:25:49;;;;;;;7.03;5.32;;;;;;;;;;5045736;28;20677;-72
2023/12/31 11:28:15;;;;;;;10.98;5.50;;;;;;;;;;5041491;28;20495;-72
2023/12/31 11:30:55;;;;;;;10.02;6.03;;;;;;;;;;5053105;28;20074;-76
2023/12/31 11:33:29;;;;;;;13.18;8.88;;;;;;;;;;5041983;28;20040;-75
2023/12/31 11:35:56;;;;;;;12.85;8.27;;;;;;;;;;5041849;28;20040;-75
2023/12/31 11:38:21;;;;;;;9.73;6.63;;;;;;;;;;5038291;28;20037;-74
2023/12/31 11:40:48;;;;;;;10.80;6.43;;;;;;;;;;5043511;28;20053;-73
2023/12/31 11:43:14;;;;;;;10.45;7.97;;;;;;;;;;5046581;28;20025;-73
2023/12/31 11:45:41;;;;;;;9.45;6.47;;;;;;;;;;5039276;28;20524;-72
2023/12/31 11:48:15;;;;;;;9.57;6.55;;;;;;;;;;5056063;28;20798;-72
2023/12/31 11:50:40;;;;;;;8.15;6.20;;;;;;;;;;5043783;28;20798;-72
2023/12/31 11:53:07;;;;;;;7.65;5.80;;;;;;;;;;5044191;28;20028;-72
2023/12/31 11:55:34;;;;;;;9.55;6.32;;;;;;;;;;5043869;28;20033;-77
2023/12/31 11:58:00;;;;;;;8.48;5.85;;;;;;;;;;5046256;28;20087;-71
2023/12/31 12:00:26;;;;;;;8.93;6.03;;;;;;;;;;5042275;28;20025;-71
2023/12/31 12:02:52;;;;;;;13.05;6.88;;;;;;;;;;5038041;28;20526;-72
2023/12/31 12:05:17;;;;;;;8.10;6.15;;;;;;;;;;5043402;28;20020;-71
2023/12/31 12:07:44;;;;;;;7.93;5.63;;;;;;;;;;5042457;28;20018;-72
2023/12/31 12:10:09;;;;;;;8.30;5.85;;;;;;;;;;5045048;28;20021;-73
2023/12/31 12:12:34;;;;;;;8.73;5.90;;;;;;;;;;5049969;28;20021;-74
2023/12/31 12:15:03;;;;;;;8.35;5.97;;;;;;;;;;5048024;28;20037;-74
2023/12/31 12:17:30;;;;;;;7.80;5.63;;;;;;;;;;5059664;28;20118;-73
2023/12/31 12:19:56;;;;;;;8.70;5.78;;;;;;;;;;5057249;28;20048;-72
2023/12/31 12:22:21;;;;;;;9.15;5.82;;;;;;;;;;5042463;28;20033;-73
2023/12/31 12:24:47;;;;;;;10.27;5.93;;;;;;;;;;5038090;28;20084;-73
2023/12/31 12:27:14;;;;;;;7.72;5.82;;;;;;;;;;5039299;28;20412;-70
2023/12/31 12:29:40;;;;;;;8.77;6.07;;;;;;;;;;5040986;28;20108;-74
2023/12/31 12:32:06;;;;;;;8.68;6.07;;;;;;;;;;5042813;28;20457;-73
2023/12/31 12:34:32;;;;;;;8.65;5.75;;;;;;;;;;5049686;28;20106;-72
2023/12/31 12:36:59;;;;;;;13.55;5.93;;;;;;;;;;5039752;28;20103;-72
2023/12/31 12:39:25;;;;;;;8.35;5.95;;;;;;;;;;5039932;28;20060;-78
2023/12/31 12:41:51;;;;;;;7.55;5.60;;;;;;;;;;5044804;28;20083;-72
2023/12/31 12:44:16;;;;;;;7.78;5.40;;;;;;;;;;5054142;28;20516;-71
2023/12/31 12:46:42;;;;;;;7.93;5.60;;;;;;;;;;5038963;28;20034;-72
2023/12/31 12:49:08;;;;;;;8.65;5.40;;;;;;;;;;5053791;28;20143;-73
2023/12/31 12:51:34;;;;;;;9.13;5.07;;;;;;;;;;5037987;28;20032;-72
2023/12/31 12:54:00;;;;;;;7.63;5.65;;;;;;;;;;5020959;28;20044;-72
2023/12/31 12:56:25;;;;;;;8.35;5.40;;;;;;;;;;5045446;28;20037;-72
2023/12/31 12:58:50;;;;;;;6.97;5.30;;;;;;;;;;5046584;28;20106;-72
2023/12/31 13:01:16;;;;;;;8.02;5.68;;;;;;;;;;5043010;28;20297;-72
2023/12/31 13:03:41;;;;;;;8.52;5.80;;;;;;;;;;5054106;28;20117;-72
2023/12/31 13:06:06;;;;;;;8.32;5.63;;;;;;;;;;5042378;28;20071;-72
2023/12/31 13:08:32;;;;;;;9.80;5.78;;;;;;;;;;5055496;28;20037;-73
2023/12/31 13:10:57;;;;;;;8.25;5.32;;;;;;;;;;5041768;28;20052;-72
2023/12/31 13:13:23;;;;;;;9.15;5.30;;;;;;;;;;5042062;28;20037;-75
2023/12/31 13:15:48;;;;;;;9.45;5.68;;;;;;;;;;5047478;28;20067;-72
2023/12/31 13:18:14;;;;;;;6.57;4.70;;;;;;;;;;5047051;28;20033;-74
2023/12/31 13:20:39;;;;;;;6.63;4.57;;;;;;;;;;5047549;28;20037;-73
2023/12/31 13:23:05;;;;;;;5.95;4.53;;;;;;;;;;5065397;28;20465;-73
2023/12/31 13:25:30;;;;;;;8.18;4.70;;;;;;;;;;5054231;28;20163;-74
2023/12/31 13:27:56;;;;;;;7.45;3.90;;;;;;;;;;5043380;28;20035;-74
2023/12/31 13:30:21;;;;;;;4.38;3.58;;;;;;;;;;5049724;28;20037;-74
2023/12/31 13:32:47;;;;;;;5.22;3.20;;;;;;;;;;5046136;28;20042;-74
2023/12/31 13:35:12;;;;;;;5.47;3.45;;;;;;;;;;5048478;28;20052;-74
2023/12/31 13:37:38;;;;;;;5.10;3.42;;;;;;;;;;5047742;28;20032;-74
2023/12/31 13:40:04;;;;;;;5.32;3.70;;;;;;;;;;5048011;28;20416;-74
2023/12/31 13:42:32;;;;;;;5.32;3.45;;;;;;;;;;5046749;28;20034;-74
2023/12/31 13:44:57;;;;;;;4.95;3.40;;;;;;;;;;5061963;28;20036;-75
2023/12/31 13:47:23;;;;;;;4.88;3.20;;;;;;;;;;5042103;28;20055;-74
2023/12/31 13:49:48;;;;;;;3.45;2.83;;;;;;;;;;5036136;28;20094;-76
2023/12/31 13:52:14;;;;;;;4.97;3.08;;;;;;;;;;5039512;28;20125;-75
2023/12/31 13:54:39;;;;;;;4.13;3.17;;;;;;;;;;5038681;28;20123;-76
2023/12/31 13:57:05;;;;;;;4.60;3.25;;;;;;;;;;5025345;28;20045;-77
2023/12/31 13:59:30;;;;;;;5.03;3.35;;;;;;;;;;5043131;28;20574;-79
2023/12/31 14:01:58;;;;;;;5.07;3.10;;;;;;;;;;5048613;28;20040;-75
2023/12/31 14:04:26;;;;;;;5.07;3.22;;;;;;;;;;5043730;28;20041;-74
2023/12/31 14:06:51;;;;;;;5.25;3.83;;;;;;;;;;5042685;28;20121;-73
2023/12/31 14:09:18;;;;;;;6.18;3.60;;;;;;;;;;5046217;28;20148;-77
2023/12/31 14:11:43;;;;;;;4.35;3.25;;;;;;;;;;5048520;28;20094;-75
2023/12/31 14:14:12;;;;;;;5.53;3.58;;;;;;;;;;5065239;28;20534;-75
2023/12/31 14:16:41;;;;;;;5.25;3.60;;;;;;;;;;5051191;28;20052;-72
2023/12/31 14:19:07;;;;;;;5.75;3.17;;;;;;;;;;5050039;28;20040;-71
2023/12/31 14:21:32;;;;;;;4.90;3.17;;;;;;;;;;5054109;28;20045;-73
2023/12/31 14:23:57;;;;;;;5.25;3.35;;;;;;;;;;5043626;28;20036;-73
2023/12/31 14:26:23;;;;;;;3.40;2.70;;;;;;;;;;5047403;28;20120;-72
2023/12/31 14:28:49;;;;;;;5.32;3.00;;;;;;;;;;5043182;28;20041;-73
2023/12/31 14:31:16;;;;;;;4.25;3.10;;;;;;;;;;5057610;28;20098;-73
2023/12/31 14:33:41;;;;;;;5.10;3.00;;;;;;;;;;5046663;28;20071;-74